createdAt,value
2022-10-26T00:00:32.210Z,12.84
2022-10-26T00:01:32.322Z,12.81
2022-10-26T00:02:32.251Z,12.84
2022-10-26T00:03:32.179Z,12.82
2022-10-26T00:04:32.167Z,12.81
2022-10-26T00:05:32.179Z,12.81
2022-10-26T00:06:32.154Z,12.88
2022-10-26T00:07:32.151Z,12.79
2022-10-26T00:08:32.127Z,12.79
2022-10-26T00:09:32.114Z,12.81
2022-10-26T00:10:32.115Z,12.81
2022-10-26T00:11:32.107Z,12.82
2022-10-26T00:12:32.080Z,12.81
2022-10-26T00:13:32.072Z,12.81
2022-10-26T00:14:32.059Z,12.81
2022-10-26T00:15:32.050Z,12.66
2022-10-26T00:16:32.045Z,12.81
2022-10-26T00:17:32.026Z,12.71
2022-10-26T00:18:32.023Z,12.77
2022-10-26T00:19:32.011Z,12.63
2022-10-26T00:20:32.004Z,12.70
2022-10-26T00:21:32.026Z,12.66
2022-10-26T00:22:32.012Z,12.64
2022-10-26T00:23:31.968Z,12.63
2022-10-26T00:24:31.951Z,12.64
2022-10-26T00:25:31.956Z,12.70
2022-10-26T00:26:31.930Z,12.63
2022-10-26T00:27:31.919Z,12.67
2022-10-26T00:28:31.908Z,12.67
2022-10-26T00:29:31.897Z,12.66
2022-10-26T00:30:31.903Z,12.69
2022-10-26T00:31:31.878Z,12.67
2022-10-26T00:32:31.896Z,12.56
2022-10-26T00:33:31.858Z,12.57
2022-10-26T00:34:31.851Z,12.60
2022-10-26T00:35:44.978Z,12.56
2022-10-26T00:36:32.818Z,12.56
2022-10-26T00:37:31.828Z,12.56
2022-10-26T00:38:31.802Z,12.63
2022-10-26T00:39:31.791Z,12.63
2022-10-26T00:40:31.776Z,12.60
2022-10-26T00:41:38.835Z,12.57
2022-10-26T00:42:31.755Z,12.56
2022-10-26T00:43:31.748Z,12.52
2022-10-26T00:44:36.065Z,12.60
2022-10-26T00:45:32.745Z,12.52
2022-10-26T00:46:31.723Z,12.64
2022-10-26T00:47:31.702Z,12.52
2022-10-26T00:48:31.699Z,12.49
2022-10-26T00:49:31.681Z,12.49
2022-10-26T00:50:31.668Z,12.49
2022-10-26T00:51:31.673Z,12.51
2022-10-26T00:52:31.648Z,12.51
2022-10-26T00:53:31.655Z,12.52
2022-10-26T00:54:31.625Z,12.51
2022-10-26T00:55:31.614Z,12.51
2022-10-26T00:56:31.621Z,12.45
2022-10-26T00:57:31.680Z,12.42
2022-10-26T00:58:31.581Z,12.48
2022-10-26T00:59:31.572Z,12.46
2022-10-26T01:00:31.567Z,12.51
2022-10-26T01:01:31.635Z,12.44
2022-10-26T01:02:31.548Z,12.42
2022-10-26T01:03:31.656Z,12.30
2022-10-26T01:04:31.519Z,12.42
2022-10-26T01:05:31.513Z,12.39
2022-10-26T01:06:31.506Z,12.21
2022-10-26T01:07:31.486Z,12.20
2022-10-26T01:08:31.476Z,12.19
2022-10-26T01:09:31.482Z,12.11
2022-10-26T01:10:31.453Z,11.93
2022-10-26T01:11:31.450Z,11.94
2022-10-26T01:12:31.435Z,11.85
2022-10-26T01:13:31.421Z,11.72
2022-10-26T01:14:31.410Z,11.74
2022-10-26T01:15:31.399Z,11.74
2022-10-26T01:16:31.400Z,11.67
2022-10-26T01:17:31.377Z,11.65
2022-10-26T01:18:31.371Z,11.68
2022-10-26T01:19:31.357Z,11.71
2022-10-26T01:20:31.367Z,11.75
2022-10-26T01:21:31.334Z,11.80
2022-10-26T01:22:31.326Z,11.75
2022-10-26T01:23:31.314Z,11.80
2022-10-26T01:24:31.306Z,11.77
2022-10-26T01:25:31.316Z,11.80
2022-10-26T01:26:31.301Z,11.89
2022-10-26T01:27:31.270Z,11.83
2022-10-26T01:28:31.265Z,11.86
2022-10-26T01:29:31.248Z,11.85
2022-10-26T01:30:31.238Z,11.82
2022-10-26T01:31:31.243Z,11.85
2022-10-26T01:32:31.218Z,11.80
2022-10-26T01:33:31.210Z,11.78
2022-10-26T01:34:31.200Z,11.74
2022-10-26T01:35:31.183Z,11.74
2022-10-26T01:37:31.164Z,11.53
2022-10-26T01:38:31.153Z,11.54
2022-10-26T01:39:31.144Z,11.52
2022-10-26T01:40:31.143Z,11.38
2022-10-26T01:41:31.136Z,11.29
2022-10-26T01:42:31.109Z,11.27
2022-10-26T01:43:31.100Z,11.27
2022-10-26T01:44:31.091Z,11.31
2022-10-26T01:45:31.087Z,11.31
2022-10-26T01:46:31.066Z,11.34
2022-10-26T01:47:31.054Z,11.38
2022-10-26T01:48:31.047Z,11.38
2022-10-26T01:49:31.033Z,11.44
2022-10-26T01:50:31.035Z,11.41
2022-10-26T01:51:31.014Z,11.38
2022-10-26T01:52:31.002Z,11.34
2022-10-26T01:53:30.994Z,11.35
2022-10-26T01:54:31.045Z,11.38
2022-10-26T01:55:30.976Z,11.35
2022-10-26T01:56:30.959Z,11.38
2022-10-26T01:57:30.964Z,11.34
2022-10-26T01:58:30.936Z,11.34
2022-10-26T01:59:30.924Z,11.35
2022-10-26T02:00:30.926Z,11.47
2022-10-26T02:01:30.925Z,11.36
2022-10-26T02:02:30.895Z,11.52
2022-10-26T02:03:30.901Z,11.38
2022-10-26T02:04:30.872Z,11.49
2022-10-26T02:05:30.878Z,11.47
2022-10-26T02:06:30.851Z,11.36
2022-10-26T02:07:30.845Z,11.38
2022-10-26T02:08:30.827Z,11.41
2022-10-26T02:09:30.816Z,11.43
2022-10-26T02:10:30.817Z,11.36
2022-10-26T02:11:30.797Z,11.41
2022-10-26T02:12:30.791Z,11.44
2022-10-26T02:13:30.792Z,11.49
2022-10-26T02:14:30.769Z,11.39
2022-10-26T02:15:30.774Z,11.39
2022-10-26T02:16:30.742Z,11.35
2022-10-26T02:17:30.731Z,11.41
2022-10-26T02:18:30.721Z,11.32
2022-10-26T02:19:30.718Z,11.39
2022-10-26T02:20:30.716Z,11.25
2022-10-26T02:21:30.692Z,11.20
2022-10-26T02:22:30.679Z,11.34
2022-10-26T02:23:30.667Z,11.25
2022-10-26T02:24:30.656Z,11.28
2022-10-26T02:25:30.657Z,11.19
2022-10-26T02:26:30.634Z,11.25
2022-10-26T02:27:30.623Z,11.25
2022-10-26T02:28:30.614Z,11.19
2022-10-26T02:29:30.641Z,11.14
2022-10-26T02:30:30.606Z,11.14
2022-10-26T02:31:30.581Z,11.11
2022-10-26T02:32:30.575Z,11.13
2022-10-26T02:33:30.559Z,11.10
2022-10-26T02:34:30.560Z,11.14
2022-10-26T02:35:30.540Z,11.17
2022-10-26T02:36:30.527Z,11.14
2022-10-26T02:37:30.517Z,11.17
2022-10-26T02:38:30.506Z,11.27
2022-10-26T02:39:30.503Z,11.24
2022-10-26T02:40:30.486Z,11.20
2022-10-26T02:41:30.475Z,11.25
2022-10-26T02:42:30.463Z,11.20
2022-10-26T02:44:30.455Z,11.24
2022-10-26T02:45:30.454Z,11.17
2022-10-26T02:46:30.420Z,11.20
2022-10-26T02:47:30.409Z,11.24
2022-10-26T02:48:30.397Z,11.27
2022-10-26T02:49:30.399Z,11.28
2022-10-26T02:50:30.392Z,11.21
2022-10-26T02:51:30.392Z,11.21
2022-10-26T02:52:30.358Z,11.25
2022-10-26T02:53:30.361Z,11.27
2022-10-26T02:54:30.336Z,11.34
2022-10-26T02:55:30.352Z,11.24
2022-10-26T02:56:30.315Z,11.32
2022-10-26T02:57:30.303Z,11.32
2022-10-26T02:58:30.292Z,11.29
2022-10-26T02:59:30.281Z,11.31
2022-10-26T03:00:30.279Z,11.28
2022-10-26T03:01:30.304Z,11.27
2022-10-26T03:02:30.311Z,11.24
2022-10-26T03:03:30.237Z,11.25
2022-10-26T03:04:30.238Z,11.27
2022-10-26T03:05:30.225Z,11.27
2022-10-26T03:06:30.206Z,11.14
2022-10-26T03:07:30.196Z,11.10
2022-10-26T03:08:30.192Z,11.06
2022-10-26T03:09:30.183Z,11.01
2022-10-26T03:10:30.166Z,10.94
2022-10-26T03:11:30.151Z,10.95
2022-10-26T03:12:30.145Z,10.94
2022-10-26T03:13:30.129Z,10.92
2022-10-26T03:14:30.128Z,10.95
2022-10-26T03:15:30.108Z,10.91
2022-10-26T03:16:30.100Z,10.95
2022-10-26T03:17:30.104Z,11.03
2022-10-26T03:18:30.078Z,10.96
2022-10-26T03:19:30.078Z,10.92
2022-10-26T03:20:30.080Z,10.98
2022-10-26T03:21:30.043Z,11.09
2022-10-26T03:22:30.033Z,11.07
2022-10-26T03:23:30.019Z,11.09
2022-10-26T03:24:30.025Z,11.11
2022-10-26T03:25:30.001Z,11.13
2022-10-26T03:26:30.016Z,11.11
2022-10-26T03:27:29.979Z,11.16
2022-10-26T03:28:29.979Z,11.17
2022-10-26T03:29:29.984Z,11.11
2022-10-26T03:30:29.946Z,11.11
2022-10-26T03:31:29.934Z,11.06
2022-10-26T03:32:29.949Z,11.01
2022-10-26T03:33:29.994Z,11.02
2022-10-26T03:34:29.904Z,11.03
2022-10-26T03:35:29.904Z,10.96
2022-10-26T03:36:29.882Z,10.96
2022-10-26T03:37:29.874Z,10.92
2022-10-26T03:38:29.864Z,10.96
2022-10-26T03:39:29.849Z,11.02
2022-10-26T03:40:29.853Z,10.95
2022-10-26T03:41:29.827Z,10.98
2022-10-26T03:42:29.823Z,11.02
2022-10-26T03:43:29.815Z,11.02
2022-10-26T03:44:29.801Z,11.07
2022-10-26T03:45:29.805Z,11.01
2022-10-26T03:46:29.779Z,11.07
2022-10-26T03:47:29.766Z,11.03
2022-10-26T03:48:29.786Z,11.06
2022-10-26T03:49:29.759Z,11.01
2022-10-26T03:50:29.772Z,10.99
2022-10-26T03:51:29.722Z,11.02
2022-10-26T03:52:29.716Z,11.01
2022-10-26T03:53:29.697Z,11.02
2022-10-26T03:54:29.701Z,11.03
2022-10-26T03:55:29.689Z,11.01
2022-10-26T03:56:29.668Z,11.09
2022-10-26T03:57:29.656Z,11.11
2022-10-26T03:58:29.654Z,11.10
2022-10-26T03:59:29.643Z,11.01
2022-10-26T04:00:29.625Z,11.09
2022-10-26T04:01:29.636Z,11.07
2022-10-26T04:02:29.629Z,11.07
2022-10-26T04:03:29.591Z,11.01
2022-10-26T04:04:29.673Z,10.99
2022-10-26T04:05:29.597Z,10.98
2022-10-26T04:06:29.560Z,10.98
2022-10-26T04:07:29.547Z,11.06
2022-10-26T04:08:29.539Z,11.01
2022-10-26T04:09:29.540Z,10.95
2022-10-26T04:10:29.516Z,11.06
2022-10-26T04:11:29.509Z,10.98
2022-10-26T04:12:29.493Z,11.03
2022-10-26T04:13:29.482Z,11.01
2022-10-26T04:14:29.471Z,11.03
2022-10-26T04:15:29.467Z,11.01
2022-10-26T04:16:32.545Z,11.07
2022-10-26T04:17:29.444Z,10.98
2022-10-26T04:18:29.428Z,11.06
2022-10-26T04:19:29.421Z,10.99
2022-10-26T04:20:29.459Z,11.09
2022-10-26T04:21:29.412Z,11.06
2022-10-26T04:22:29.388Z,11.01
2022-10-26T04:23:29.391Z,11.01
2022-10-26T04:24:29.366Z,11.06
2022-10-26T04:25:32.677Z,11.07
2022-10-26T04:26:29.347Z,10.99
2022-10-26T04:27:29.330Z,11.01
2022-10-26T04:28:29.320Z,11.06
2022-10-26T04:29:29.307Z,11.09
2022-10-26T04:30:29.310Z,11.06
2022-10-26T04:31:29.337Z,11.10
2022-10-26T04:32:29.284Z,10.96
2022-10-26T04:33:29.265Z,10.99
2022-10-26T04:34:29.279Z,11.09
2022-10-26T04:35:29.256Z,11.17
2022-10-26T04:36:29.232Z,11.16
2022-10-26T04:37:29.239Z,11.11
2022-10-26T04:38:29.213Z,11.19
2022-10-26T04:39:29.222Z,11.10
2022-10-26T04:40:29.214Z,11.29
2022-10-26T04:41:29.194Z,11.27
2022-10-26T04:42:29.167Z,11.25
2022-10-26T04:43:29.159Z,11.24
2022-10-26T04:44:29.148Z,11.25
2022-10-26T04:45:29.145Z,11.17
2022-10-26T04:46:29.125Z,11.13
2022-10-26T04:47:29.125Z,11.16
2022-10-26T04:48:29.131Z,11.09
2022-10-26T04:49:29.088Z,11.02
2022-10-26T04:50:29.092Z,11.09
2022-10-26T04:51:29.066Z,10.92
2022-10-26T04:52:29.057Z,10.98
2022-10-26T04:53:29.066Z,10.92
2022-10-26T04:54:29.035Z,10.91
2022-10-26T04:55:29.037Z,10.96
2022-10-26T04:56:29.013Z,10.92
2022-10-26T04:57:29.006Z,10.96
2022-10-26T04:58:29.025Z,10.95
2022-10-26T04:59:28.985Z,10.89
2022-10-26T05:00:28.990Z,10.91
2022-10-26T05:01:29.030Z,10.91
2022-10-26T05:02:29.194Z,10.92
2022-10-26T05:03:30.112Z,11.02
2022-10-26T05:04:28.927Z,10.94
2022-10-26T05:05:28.925Z,10.78
2022-10-26T05:06:28.904Z,10.89
2022-10-26T05:07:28.896Z,10.91
2022-10-26T05:08:28.891Z,10.84
2022-10-26T05:09:28.888Z,10.92
2022-10-26T05:10:28.877Z,10.89
2022-10-26T05:11:28.853Z,10.84
2022-10-26T05:12:28.841Z,10.86
2022-10-26T05:13:28.838Z,10.91
2022-10-26T05:14:28.846Z,10.83
2022-10-26T05:15:28.818Z,10.88
2022-10-26T05:16:28.797Z,10.89
2022-10-26T05:17:28.783Z,10.86
2022-10-26T05:18:28.777Z,10.83
2022-10-26T05:19:28.764Z,10.84
2022-10-26T05:20:28.764Z,10.84
2022-10-26T05:21:28.740Z,10.89
2022-10-26T05:22:28.731Z,10.81
2022-10-26T05:23:28.720Z,10.91
2022-10-26T05:24:28.707Z,10.88
2022-10-26T05:25:28.725Z,10.84
2022-10-26T05:26:28.742Z,10.74
2022-10-26T05:27:28.700Z,10.78
2022-10-26T05:28:28.664Z,10.81
2022-10-26T05:29:28.654Z,10.76
2022-10-26T05:30:28.653Z,10.83
2022-10-26T05:31:28.631Z,10.80
2022-10-26T05:32:28.619Z,10.77
2022-10-26T05:33:28.610Z,10.78
2022-10-26T05:34:28.611Z,10.73
2022-10-26T05:35:28.598Z,10.74
2022-10-26T05:36:28.578Z,10.74
2022-10-26T05:37:28.566Z,10.73
2022-10-26T05:38:28.559Z,10.78
2022-10-26T05:39:28.544Z,10.76
2022-10-26T05:40:28.545Z,10.74
2022-10-26T05:41:28.541Z,10.73
2022-10-26T05:42:28.509Z,10.71
2022-10-26T05:43:28.502Z,10.68
2022-10-26T05:44:28.508Z,10.71
2022-10-26T05:45:28.491Z,10.62
2022-10-26T05:46:28.465Z,10.62
2022-10-26T05:47:28.458Z,10.63
2022-10-26T05:48:28.445Z,10.59
2022-10-26T05:49:28.436Z,10.56
2022-10-26T05:50:28.435Z,10.52
2022-10-26T05:51:28.418Z,10.56
2022-10-26T05:52:28.406Z,10.53
2022-10-26T05:53:28.393Z,10.53
2022-10-26T05:54:28.379Z,10.55
2022-10-26T05:55:28.385Z,10.53
2022-10-26T05:56:28.360Z,10.56
2022-10-26T05:57:28.369Z,10.47
2022-10-26T05:58:28.351Z,10.51
2022-10-26T05:59:28.330Z,10.58
2022-10-26T06:00:28.417Z,10.44
2022-10-26T06:01:28.485Z,10.58
2022-10-26T06:02:28.392Z,10.53
2022-10-26T06:03:28.316Z,10.53
2022-10-26T06:04:28.271Z,10.55
2022-10-26T06:05:28.275Z,10.53
2022-10-26T06:06:28.250Z,10.52
2022-10-26T06:07:28.240Z,10.60
2022-10-26T06:08:28.237Z,10.62
2022-10-26T06:09:28.223Z,10.62
2022-10-26T06:10:28.301Z,10.65
2022-10-26T06:11:28.202Z,10.65
2022-10-26T06:12:28.189Z,10.73
2022-10-26T06:13:28.194Z,10.70
2022-10-26T06:14:28.164Z,10.77
2022-10-26T06:15:28.164Z,10.81
2022-10-26T06:16:28.142Z,10.62
2022-10-26T06:17:28.132Z,10.58
2022-10-26T06:18:28.120Z,10.42
2022-10-26T06:19:28.109Z,10.40
2022-10-26T06:20:28.219Z,10.32
2022-10-26T06:21:28.088Z,10.36
2022-10-26T06:22:28.077Z,10.39
2022-10-26T06:23:28.065Z,10.58
2022-10-26T06:24:28.051Z,10.70
2022-10-26T06:25:28.061Z,10.92
2022-10-26T06:26:28.045Z,11.06
2022-10-26T06:27:28.022Z,11.34
2022-10-26T06:28:28.113Z,11.43
2022-10-26T06:29:28.018Z,11.70
2022-10-26T06:30:28.129Z,11.89
2022-10-26T06:31:27.978Z,12.12
2022-10-26T06:32:27.985Z,12.41
2022-10-26T06:33:30.278Z,12.71
2022-10-26T06:34:27.946Z,12.96
2022-10-26T06:35:27.949Z,13.20
2022-10-26T06:36:27.926Z,13.47
2022-10-26T06:37:27.912Z,13.71
2022-10-26T06:38:27.900Z,13.76
2022-10-26T06:39:27.892Z,13.99
2022-10-26T06:40:27.898Z,14.20
2022-10-26T06:42:22.013Z,14.52
2022-10-26T06:43:22.000Z,14.74
2022-10-26T06:44:21.991Z,14.95
2022-10-26T06:45:22.001Z,15.15
2022-10-26T06:46:21.978Z,15.36
2022-10-26T06:47:23.604Z,15.45
2022-10-26T06:48:21.947Z,15.59
2022-10-26T06:49:21.947Z,15.76
2022-10-26T06:50:21.922Z,15.76
2022-10-26T06:51:21.926Z,15.72
2022-10-26T06:52:21.902Z,15.74
2022-10-26T06:53:21.894Z,15.78
2022-10-26T06:54:21.880Z,15.82
2022-10-26T06:55:21.881Z,15.86
2022-10-26T06:56:21.865Z,15.86
2022-10-26T06:57:21.852Z,16.01
2022-10-26T06:58:21.878Z,16.09
2022-10-26T06:59:21.837Z,16.27
2022-10-26T07:00:21.916Z,16.37
2022-10-26T07:01:22.021Z,16.60
2022-10-26T07:02:21.872Z,16.60
2022-10-26T07:03:21.784Z,16.60
2022-10-26T07:04:21.773Z,16.71
2022-10-26T07:05:21.779Z,16.90
2022-10-26T07:06:21.788Z,17.07
2022-10-26T07:07:21.747Z,17.25
2022-10-26T07:08:21.727Z,17.44
2022-10-26T07:09:21.722Z,17.55
2022-10-26T07:10:21.721Z,17.78
2022-10-26T07:11:21.702Z,17.81
2022-10-26T07:12:21.690Z,17.91
2022-10-26T07:13:21.676Z,17.92
2022-10-26T07:14:21.664Z,18.17
2022-10-26T07:15:21.668Z,18.17
2022-10-26T07:16:21.644Z,18.31
2022-10-26T07:17:21.650Z,18.52
2022-10-26T07:18:21.621Z,18.70
2022-10-26T07:19:21.613Z,18.80
2022-10-26T07:20:21.619Z,18.87
2022-10-26T07:21:21.599Z,18.98
2022-10-26T07:22:21.577Z,19.15
2022-10-26T07:23:21.623Z,19.36
2022-10-26T07:24:21.553Z,19.57
2022-10-26T07:25:21.556Z,19.78
2022-10-26T07:26:21.532Z,19.91
2022-10-26T07:27:21.527Z,20.06
2022-10-26T07:28:21.513Z,20.24
2022-10-26T07:29:21.503Z,20.42
2022-10-26T07:30:21.516Z,20.56
2022-10-26T07:31:21.503Z,20.77
2022-10-26T07:32:21.476Z,20.89
2022-10-26T07:33:21.476Z,20.93
2022-10-26T07:34:21.447Z,21.34
2022-10-26T07:35:21.466Z,21.51
2022-10-26T07:36:21.443Z,21.60
2022-10-26T07:37:21.417Z,21.57
2022-10-26T07:38:21.408Z,21.66
2022-10-26T07:39:21.396Z,21.78
2022-10-26T07:41:21.388Z,21.90
2022-10-26T07:42:21.372Z,21.95
2022-10-26T07:43:21.357Z,21.90
2022-10-26T07:44:21.343Z,21.92
2022-10-26T07:45:21.332Z,21.85
2022-10-26T07:46:21.333Z,21.91
2022-10-26T07:47:21.313Z,22.07
2022-10-26T07:48:21.302Z,22.12
2022-10-26T07:49:23.814Z,22.34
2022-10-26T07:50:21.279Z,22.43
2022-10-26T07:51:21.279Z,22.39
2022-10-26T07:52:21.258Z,22.29
2022-10-26T07:53:26.759Z,22.19
2022-10-26T07:54:22.249Z,22.17
2022-10-26T07:55:21.230Z,22.34
2022-10-26T07:56:21.231Z,22.34
2022-10-26T07:57:21.217Z,22.09
2022-10-26T07:58:21.205Z,21.92
2022-10-26T07:59:21.187Z,21.90
2022-10-26T08:00:21.193Z,21.56
2022-10-26T08:01:21.330Z,21.46
2022-10-26T08:02:21.156Z,21.29
2022-10-26T08:03:21.145Z,21.06
2022-10-26T08:04:21.136Z,20.96
2022-10-26T08:05:21.237Z,20.72
2022-10-26T08:06:21.113Z,20.34
2022-10-26T08:07:21.102Z,20.12
2022-10-26T08:08:21.094Z,20.15
2022-10-26T08:09:21.081Z,20.09
2022-10-26T08:10:21.150Z,19.79
2022-10-26T08:11:21.062Z,19.51
2022-10-26T08:12:21.048Z,19.02
2022-10-26T08:13:21.042Z,18.80
2022-10-26T08:14:21.030Z,18.70
2022-10-26T08:15:21.049Z,18.86
2022-10-26T08:16:21.007Z,18.95
2022-10-26T08:17:20.996Z,19.17
2022-10-26T08:18:20.986Z,19.32
2022-10-26T08:19:20.975Z,19.51
2022-10-26T08:20:21.102Z,19.53
2022-10-26T08:21:35.845Z,19.72
2022-10-26T08:22:21.991Z,19.72
2022-10-26T08:23:20.932Z,19.79
2022-10-26T08:24:20.923Z,19.73
2022-10-26T08:25:21.591Z,19.63
2022-10-26T08:26:20.909Z,19.50
2022-10-26T08:27:20.889Z,19.35
2022-10-26T08:28:20.876Z,19.10
2022-10-26T08:29:20.873Z,18.92
2022-10-26T08:30:21.064Z,18.90
2022-10-26T08:31:20.858Z,18.64
2022-10-26T08:32:20.836Z,18.54
2022-10-26T08:33:20.823Z,18.43
2022-10-26T08:34:20.820Z,18.25
2022-10-26T08:35:20.814Z,18.27
2022-10-26T08:36:20.804Z,17.94
2022-10-26T08:37:20.798Z,17.62
2022-10-26T08:38:20.781Z,17.67
2022-10-26T08:39:20.770Z,17.62
2022-10-26T08:40:20.807Z,17.66
2022-10-26T08:41:20.757Z,17.71
2022-10-26T08:42:20.727Z,17.82
2022-10-26T08:43:20.715Z,18.07
2022-10-26T08:44:20.704Z,18.29
2022-10-26T08:45:24.723Z,18.36
2022-10-26T08:46:21.698Z,18.46
2022-10-26T08:47:20.707Z,18.59
2022-10-26T08:48:20.664Z,18.64
2022-10-26T08:49:20.667Z,18.72
2022-10-26T08:50:20.694Z,18.90
2022-10-26T08:51:20.644Z,19.10
2022-10-26T08:52:20.622Z,19.42
2022-10-26T08:53:20.648Z,19.54
2022-10-26T08:54:20.596Z,19.70
2022-10-26T08:55:20.583Z,19.91
2022-10-26T08:56:20.586Z,20.13
2022-10-26T08:57:20.580Z,20.33
2022-10-26T08:58:20.577Z,20.34
2022-10-26T08:59:20.553Z,20.61
2022-10-26T09:00:20.555Z,20.79
2022-10-26T09:01:20.629Z,20.89
2022-10-26T09:02:20.524Z,20.91
2022-10-26T09:03:20.502Z,20.93
2022-10-26T09:04:20.486Z,21.06
2022-10-26T09:05:20.476Z,21.36
2022-10-26T09:06:20.473Z,21.54
2022-10-26T09:07:20.469Z,21.78
2022-10-26T09:08:20.442Z,22.27
2022-10-26T09:09:20.461Z,22.49
2022-10-26T09:10:20.520Z,22.87
2022-10-26T09:11:20.424Z,23.12
2022-10-26T09:12:20.401Z,23.58
2022-10-26T09:13:20.389Z,23.86
2022-10-26T09:14:20.383Z,24.08
2022-10-26T09:15:20.367Z,24.19
2022-10-26T09:16:20.369Z,24.38
2022-10-26T09:17:20.350Z,24.63
2022-10-26T09:18:20.339Z,25.02
2022-10-26T09:19:20.334Z,25.24
2022-10-26T09:20:20.339Z,25.20
2022-10-26T09:21:20.320Z,25.43
2022-10-26T09:22:20.301Z,25.71
2022-10-26T09:23:20.288Z,25.74
2022-10-26T09:24:20.276Z,25.91
2022-10-26T09:25:20.282Z,26.28
2022-10-26T09:26:20.268Z,26.22
2022-10-26T09:27:20.247Z,26.25
2022-10-26T09:28:20.237Z,26.40
2022-10-26T09:29:20.234Z,26.31
2022-10-26T09:30:20.227Z,26.20
2022-10-26T09:31:20.221Z,26.05
2022-10-26T09:32:20.214Z,26.17
2022-10-26T09:33:20.187Z,26.04
2022-10-26T09:34:20.179Z,26.08
2022-10-26T09:35:20.232Z,26.02
2022-10-26T09:36:20.181Z,26.09
2022-10-26T09:37:20.150Z,25.79
2022-10-26T09:38:20.162Z,25.75
2022-10-26T09:39:20.138Z,25.84
2022-10-26T09:40:20.132Z,25.86
2022-10-26T09:41:20.141Z,25.71
2022-10-26T09:42:20.098Z,25.98
2022-10-26T09:43:20.087Z,26.05
2022-10-26T09:44:20.098Z,26.15
2022-10-26T09:45:20.068Z,26.25
2022-10-26T09:46:20.068Z,26.29
2022-10-26T09:47:20.067Z,26.22
2022-10-26T09:48:20.040Z,26.40
2022-10-26T09:49:20.029Z,26.68
2022-10-26T09:50:20.027Z,26.74
2022-10-26T09:51:20.033Z,26.68
2022-10-26T09:52:20.000Z,26.68
2022-10-26T09:53:19.989Z,26.74
2022-10-26T09:54:19.997Z,26.91
2022-10-26T09:55:19.980Z,27.14
2022-10-26T09:56:20.245Z,27.19
2022-10-26T09:57:19.972Z,27.06
2022-10-26T09:58:19.949Z,27.10
2022-10-26T09:59:19.933Z,27.02
2022-10-26T10:00:20.059Z,26.74
2022-10-26T10:01:19.977Z,26.65
2022-10-26T10:02:19.974Z,26.52
2022-10-26T10:03:19.961Z,26.40
2022-10-26T10:04:19.889Z,26.40
2022-10-26T10:05:27.543Z,26.37
2022-10-26T10:06:20.875Z,26.44
2022-10-26T10:07:19.855Z,26.40
2022-10-26T10:08:19.848Z,26.47
2022-10-26T10:09:19.866Z,26.58
2022-10-26T10:10:19.830Z,26.37
2022-10-26T10:11:19.817Z,26.50
2022-10-26T10:12:19.820Z,26.64
2022-10-26T10:13:19.817Z,26.39
2022-10-26T10:14:19.807Z,25.72
2022-10-26T10:15:19.783Z,25.02
2022-10-26T10:16:19.776Z,24.35
2022-10-26T10:17:19.786Z,23.55
2022-10-26T10:18:19.768Z,23.08
2022-10-26T10:19:19.766Z,22.67
2022-10-26T10:20:19.742Z,22.54
2022-10-26T10:21:19.733Z,22.14
2022-10-26T10:22:19.718Z,21.61
2022-10-26T10:23:19.731Z,21.24
2022-10-26T10:24:19.698Z,20.96
2022-10-26T10:25:19.748Z,20.83
2022-10-26T10:26:19.687Z,20.62
2022-10-26T10:27:19.684Z,20.25
2022-10-26T10:29:19.671Z,19.90
2022-10-26T10:30:19.640Z,19.70
2022-10-26T10:31:19.642Z,19.39
2022-10-26T10:32:19.612Z,19.15
2022-10-26T10:33:19.601Z,18.95
2022-10-26T10:34:19.609Z,19.01
2022-10-26T10:35:19.591Z,18.74
2022-10-26T10:36:19.583Z,18.74
2022-10-26T10:37:19.557Z,18.72
2022-10-26T10:38:19.548Z,18.50
2022-10-26T10:39:19.589Z,18.40
2022-10-26T10:40:19.594Z,18.43
2022-10-26T10:41:19.532Z,18.28
2022-10-26T10:42:19.509Z,18.29
2022-10-26T10:43:19.492Z,18.24
2022-10-26T10:44:19.485Z,18.15
2022-10-26T10:45:19.491Z,18.09
2022-10-26T10:46:19.465Z,17.94
2022-10-26T10:47:19.462Z,17.95
2022-10-26T10:48:19.441Z,17.78
2022-10-26T10:49:19.433Z,17.71
2022-10-26T10:50:19.461Z,17.63
2022-10-26T10:51:19.407Z,17.74
2022-10-26T10:52:19.408Z,17.82
2022-10-26T10:53:19.437Z,17.81
2022-10-26T10:54:19.395Z,17.66
2022-10-26T10:55:19.367Z,17.59
2022-10-26T10:56:19.356Z,17.70
2022-10-26T10:57:19.357Z,17.63
2022-10-26T10:58:19.333Z,17.64
2022-10-26T10:59:19.323Z,17.66
2022-10-26T11:00:19.322Z,17.62
2022-10-26T11:01:19.440Z,17.64
2022-10-26T11:02:19.455Z,17.57
2022-10-26T11:03:23.332Z,17.64
2022-10-26T11:04:20.279Z,17.70
2022-10-26T11:05:22.050Z,17.69
2022-10-26T11:06:20.248Z,17.74
2022-10-26T11:07:19.249Z,17.63
2022-10-26T11:08:19.226Z,17.64
2022-10-26T11:09:19.215Z,17.62
2022-10-26T11:10:19.206Z,17.66
2022-10-26T11:11:19.195Z,17.71
2022-10-26T11:12:19.204Z,17.78
2022-10-26T11:13:19.215Z,17.71
2022-10-26T11:14:19.182Z,17.73
2022-10-26T11:15:19.151Z,17.74
2022-10-26T11:16:19.140Z,17.67
2022-10-26T11:17:19.168Z,17.63
2022-10-26T11:18:19.122Z,17.69
2022-10-26T11:19:19.107Z,17.66
2022-10-26T11:20:19.098Z,17.64
2022-10-26T11:21:19.090Z,17.67
2022-10-26T11:22:19.084Z,17.59
2022-10-26T11:23:19.063Z,17.48
2022-10-26T11:24:19.081Z,17.44
2022-10-26T11:25:19.040Z,17.44
2022-10-26T11:26:19.032Z,17.48
2022-10-26T11:27:19.042Z,17.46
2022-10-26T11:28:19.011Z,17.44
2022-10-26T11:29:19.039Z,17.51
2022-10-26T11:30:18.987Z,17.57
2022-10-26T11:31:18.976Z,17.59
2022-10-26T11:32:19.017Z,17.62
2022-10-26T11:33:18.972Z,17.64
2022-10-26T11:34:18.949Z,17.62
2022-10-26T11:35:18.933Z,17.70
2022-10-26T11:36:21.719Z,17.73
2022-10-26T11:37:18.921Z,17.76
2022-10-26T11:38:27.901Z,17.67
2022-10-26T11:39:19.892Z,17.69
2022-10-26T11:40:18.886Z,17.67
2022-10-26T11:41:18.885Z,17.66
2022-10-26T11:42:18.864Z,17.69
2022-10-26T11:43:18.844Z,17.69
2022-10-26T11:44:18.844Z,17.76
2022-10-26T11:45:18.837Z,17.76
2022-10-26T11:46:19.333Z,17.74
2022-10-26T11:47:18.802Z,17.79
2022-10-26T11:48:18.795Z,17.76
2022-10-26T11:49:18.798Z,17.73
2022-10-26T11:50:18.863Z,17.81
2022-10-26T11:51:18.774Z,17.81
2022-10-26T11:52:18.751Z,17.84
2022-10-26T11:53:18.740Z,17.84
2022-10-26T11:54:18.777Z,17.82
2022-10-26T11:55:18.722Z,17.88
2022-10-26T11:56:18.721Z,17.95
2022-10-26T11:57:18.696Z,17.92
2022-10-26T11:58:18.690Z,17.88
2022-10-26T11:59:18.672Z,17.92
2022-10-26T12:00:18.664Z,17.97
2022-10-26T12:01:18.761Z,17.99
2022-10-26T12:02:18.642Z,17.94
2022-10-26T12:03:18.636Z,17.92
2022-10-26T12:04:18.619Z,17.97
2022-10-26T12:05:18.627Z,17.92
2022-10-26T12:06:18.608Z,17.88
2022-10-26T12:07:18.586Z,17.99
2022-10-26T12:08:18.576Z,17.97
2022-10-26T12:09:18.580Z,17.97
2022-10-26T12:10:22.986Z,17.97
2022-10-26T12:11:19.553Z,18.00
2022-10-26T12:12:18.537Z,18.03
2022-10-26T12:13:18.524Z,18.09
2022-10-26T12:14:18.529Z,18.10
2022-10-26T12:15:18.501Z,18.10
2022-10-26T12:16:18.510Z,18.03
2022-10-26T12:17:18.487Z,18.07
2022-10-26T12:18:26.849Z,18.06
2022-10-26T12:19:19.509Z,18.06
2022-10-26T12:20:18.455Z,18.04
2022-10-26T12:21:18.573Z,18.03
2022-10-26T12:22:18.429Z,18.06
2022-10-26T12:23:28.098Z,18.10
2022-10-26T12:24:19.401Z,18.10
2022-10-26T12:25:18.393Z,18.09
2022-10-26T12:26:18.391Z,17.95
2022-10-26T12:27:18.385Z,17.94
2022-10-26T12:28:18.362Z,17.95
2022-10-26T12:29:18.347Z,18.02
2022-10-26T12:30:18.340Z,18.02
2022-10-26T12:31:18.374Z,18.00
2022-10-26T12:32:18.319Z,18.02
2022-10-26T12:33:18.302Z,18.06
2022-10-26T12:34:18.293Z,18.09
2022-10-26T12:35:18.290Z,18.07
2022-10-26T12:36:18.270Z,18.09
2022-10-26T12:37:18.278Z,18.10
2022-10-26T12:38:18.252Z,18.10
2022-10-26T12:39:18.237Z,18.12
2022-10-26T12:40:18.238Z,18.07
2022-10-26T12:41:18.216Z,18.07
2022-10-26T12:42:18.209Z,18.15
2022-10-26T12:43:18.205Z,18.09
2022-10-26T12:44:18.197Z,18.06
2022-10-26T12:45:18.183Z,18.12
2022-10-26T12:46:18.162Z,18.13
2022-10-26T12:47:18.151Z,18.10
2022-10-26T12:48:27.605Z,18.12
2022-10-26T12:49:19.127Z,18.09
2022-10-26T12:50:18.136Z,18.12
2022-10-26T12:51:18.107Z,18.21
2022-10-26T12:52:18.098Z,18.13
2022-10-26T12:53:18.104Z,18.22
2022-10-26T12:54:18.075Z,18.15
2022-10-26T12:55:18.082Z,18.21
2022-10-26T12:56:18.055Z,18.29
2022-10-26T12:57:18.041Z,18.24